createdAt,value
2022-08-03T00:02:22.026Z,16.13
2022-08-03T00:04:51.901Z,17.58
2022-08-03T00:09:52.174Z,16.48
2022-08-03T00:12:22.401Z,18.67
2022-08-03T00:17:21.556Z,19.05
2022-08-03T00:19:52.515Z,23.38
2022-08-03T00:22:22.265Z,19.10
2022-08-03T00:24:54.210Z,17.33
2022-08-03T00:29:57.610Z,16.50
2022-08-03T00:32:30.614Z,17.27
2022-08-03T00:37:40.717Z,17.38
2022-08-03T00:43:12.662Z,18.98
2022-08-03T00:45:44.754Z,18.88
2022-08-03T00:48:32.234Z,16.95
2022-08-03T00:51:04.113Z,18.02
2022-08-03T00:53:34.206Z,19.85
2022-08-03T00:56:05.122Z,17.95
2022-08-03T00:58:35.104Z,20.30
2022-08-03T01:03:38.782Z,21.60
2022-08-03T01:08:56.081Z,17.10
2022-08-03T01:14:18.675Z,18.02
2022-08-03T01:17:27.205Z,20.50
2022-08-03T01:20:02.611Z,23.15
2022-08-03T01:23:02.261Z,21.20
2022-08-03T01:25:44.053Z,19.10
2022-08-03T01:28:51.127Z,18.60
2022-08-03T01:34:01.340Z,17.58
2022-08-03T01:36:46.217Z,19.17
2022-08-03T01:39:21.138Z,18.42
2022-08-03T01:42:00.442Z,18.08
2022-08-03T01:44:32.995Z,18.20
2022-08-03T01:47:05.825Z,17.63
2022-08-03T01:49:41.473Z,17.95
2022-08-03T01:52:13.942Z,19.38
2022-08-03T01:54:46.752Z,18.88
2022-08-03T01:57:17.571Z,17.65
2022-08-03T01:59:50.952Z,18.70
2022-08-03T02:02:33.482Z,18.08
2022-08-03T02:05:10.969Z,17.88
2022-08-03T02:07:43.813Z,18.88
2022-08-03T02:10:34.810Z,16.83
2022-08-03T02:13:09.376Z,18.98
2022-08-03T02:15:40.619Z,19.55
2022-08-03T02:18:12.931Z,19.67
2022-08-03T02:20:45.830Z,19.27
2022-08-03T02:23:19.417Z,18.48
2022-08-03T02:25:54.748Z,20.15
2022-08-03T02:28:33.371Z,17.42
2022-08-03T02:31:16.893Z,17.17
2022-08-03T02:34:03.163Z,17.75
2022-08-03T02:36:37.993Z,16.63
2022-08-03T02:39:11.421Z,17.48
2022-08-03T02:41:49.166Z,16.42
2022-08-03T02:44:27.980Z,16.75
2022-08-03T02:47:03.402Z,17.77
2022-08-03T02:49:49.500Z,18.17
2022-08-03T02:52:23.154Z,16.60
2022-08-03T02:54:57.594Z,18.23
2022-08-03T02:57:30.323Z,16.92
2022-08-03T03:00:01.405Z,18.08
2022-08-03T03:02:32.711Z,18.00
2022-08-03T03:05:53.360Z,20.77
2022-08-03T03:07:56.178Z,20.17
2022-08-03T03:10:27.271Z,20.00
2022-08-03T03:12:59.823Z,21.42
2022-08-03T03:15:32.296Z,22.30
2022-08-03T03:18:03.068Z,22.15
2022-08-03T03:20:34.977Z,20.30
2022-08-03T03:23:06.649Z,21.58
2022-08-03T03:25:38.115Z,19.90
2022-08-03T03:28:09.219Z,23.67
2022-08-03T03:30:39.552Z,21.35
2022-08-03T03:33:09.710Z,21.42
2022-08-03T03:35:40.356Z,21.23
2022-08-03T03:38:12.712Z,23.02
2022-08-03T03:40:43.163Z,23.15
2022-08-03T03:43:14.127Z,25.55
2022-08-03T03:45:44.672Z,23.33
2022-08-03T03:48:14.633Z,25.80
2022-08-03T03:50:46.075Z,23.65
2022-08-03T03:53:16.489Z,26.60
2022-08-03T03:56:02.208Z,24.15
2022-08-03T03:58:34.362Z,25.95
2022-08-03T04:01:04.414Z,22.65
2022-08-03T04:03:34.215Z,24.33
2022-08-03T04:09:10.218Z,15.88
2022-08-03T04:11:43.256Z,21.33
2022-08-03T04:14:35.516Z,21.63
2022-08-03T04:17:07.876Z,21.92
2022-08-03T04:19:43.533Z,22.83
2022-08-03T04:22:18.154Z,21.27
2022-08-03T04:24:51.259Z,22.77
2022-08-03T04:27:25.103Z,20.50
2022-08-03T04:29:58.403Z,19.38
2022-08-03T04:32:29.884Z,20.20
2022-08-03T04:35:00.284Z,22.42
2022-08-03T04:37:53.134Z,22.35
2022-08-03T04:40:29.789Z,20.50
2022-08-03T04:43:01.187Z,19.33
2022-08-03T04:45:33.010Z,24.08
2022-08-03T04:48:04.082Z,23.80
2022-08-03T04:50:35.036Z,19.67
2022-08-03T04:53:09.985Z,21.63
2022-08-03T04:55:40.094Z,20.40
2022-08-03T05:00:39.265Z,20.67
2022-08-03T05:06:01.818Z,18.38
2022-08-03T05:08:45.231Z,18.70
2022-08-03T05:11:18.203Z,20.25
2022-08-03T05:13:50.301Z,21.92
2022-08-03T05:16:20.580Z,23.27
2022-08-03T05:18:50.304Z,21.70
2022-08-03T05:23:49.214Z,18.48
2022-08-03T05:28:48.827Z,17.67
2022-08-03T05:31:21.831Z,19.58
2022-08-03T05:33:51.803Z,19.80
2022-08-03T05:36:21.550Z,20.27
2022-08-03T05:41:36.435Z,20.02
2022-08-03T05:44:07.846Z,19.45
2022-08-03T05:46:38.110Z,20.33
2022-08-03T05:49:07.891Z,19.38
2022-08-03T05:51:38.647Z,19.08
2022-08-03T05:54:08.452Z,18.40
2022-08-03T05:56:38.649Z,19.38
2022-08-03T05:59:35.787Z,19.23
2022-08-03T06:01:59.068Z,21.02
2022-08-03T06:04:28.876Z,20.33
2022-08-03T06:06:58.927Z,20.85
2022-08-03T06:09:31.835Z,20.48
2022-08-03T06:12:20.496Z,20.77
2022-08-03T06:14:50.765Z,20.42
2022-08-03T06:17:20.697Z,18.98
2022-08-03T06:22:22.134Z,18.77
2022-08-03T06:27:36.339Z,18.05
2022-08-03T06:30:09.697Z,17.90
2022-08-03T06:32:41.730Z,18.13
2022-08-03T06:35:22.297Z,20.20
2022-08-03T06:37:55.304Z,19.10
2022-08-03T06:40:32.863Z,19.60
2022-08-03T06:43:07.537Z,18.23
2022-08-03T06:45:40.687Z,18.60
2022-08-03T06:50:43.227Z,19.80
2022-08-03T06:53:18.257Z,21.65
2022-08-03T06:55:54.627Z,21.88
2022-08-03T06:58:25.162Z,22.17
2022-08-03T07:03:25.536Z,18.40
2022-08-03T07:08:33.956Z,19.60
2022-08-03T07:11:04.644Z,18.33
2022-08-03T07:13:34.456Z,18.42
2022-08-03T07:18:33.328Z,17.98
2022-08-03T07:21:03.056Z,18.75
2022-08-03T07:23:32.806Z,18.80
2022-08-03T07:26:02.886Z,18.67
2022-08-03T07:28:32.790Z,19.85
2022-08-03T07:31:02.554Z,18.48
2022-08-03T07:36:01.512Z,19.20
2022-08-03T07:38:31.496Z,17.73
2022-08-03T07:41:01.186Z,18.20
2022-08-03T07:43:30.991Z,19.75
2022-08-03T07:48:30.369Z,19.27
2022-08-03T07:51:00.419Z,18.25
2022-08-03T07:53:30.194Z,18.20
2022-08-03T07:58:31.296Z,18.65
2022-08-03T08:03:30.373Z,19.73
2022-08-03T08:06:20.661Z,20.77
2022-08-03T08:08:50.722Z,20.40
2022-08-03T08:11:20.568Z,22.58
2022-08-03T08:13:50.634Z,22.88
2022-08-03T08:16:20.380Z,20.23
2022-08-03T08:21:20.382Z,21.25
2022-08-03T08:23:56.918Z,21.42
2022-08-03T08:26:27.969Z,21.88
2022-08-03T08:31:27.265Z,20.90
2022-08-03T08:34:04.936Z,21.50
2022-08-03T08:36:36.576Z,22.80
2022-08-03T08:39:06.711Z,22.50
2022-08-03T08:44:07.099Z,20.13
2022-08-03T08:46:38.437Z,23.85
2022-08-03T08:49:11.268Z,22.33
2022-08-03T08:51:59.765Z,22.98
2022-08-03T08:54:33.852Z,23.02
2022-08-03T08:57:21.078Z,22.73
2022-08-03T08:59:58.480Z,25.45
2022-08-03T09:02:32.146Z,25.30
2022-08-03T09:05:07.206Z,25.23
2022-08-03T09:07:37.767Z,24.98
2022-08-03T09:10:12.692Z,24.38
2022-08-03T09:12:49.041Z,23.85
2022-08-03T09:15:25.094Z,24.52
2022-08-03T09:17:57.806Z,24.58
2022-08-03T09:20:31.620Z,25.23
2022-08-03T09:23:51.207Z,24.98
2022-08-03T09:26:02.650Z,23.80
2022-08-03T09:28:59.964Z,25.98
2022-08-03T09:34:14.828Z,23.70
2022-08-03T09:36:50.203Z,23.60
2022-08-03T09:39:37.468Z,22.15
2022-08-03T09:42:16.185Z,22.52
2022-08-03T09:44:50.936Z,24.30
2022-08-03T09:47:32.260Z,24.55
2022-08-03T09:50:11.612Z,24.73
2022-08-03T09:52:49.677Z,22.67
2022-08-03T09:56:35.294Z,22.67
2022-08-03T09:58:15.469Z,20.50
2022-08-03T10:01:06.777Z,22.33
2022-08-03T10:04:03.276Z,19.88
2022-08-03T10:06:29.554Z,19.48
2022-08-03T10:09:16.821Z,20.95
2022-08-03T10:11:48.052Z,19.05
2022-08-03T10:14:20.561Z,20.45
2022-08-03T10:16:51.506Z,19.02
2022-08-03T10:19:21.323Z,18.50
2022-08-03T10:22:02.674Z,20.65
2022-08-03T10:24:36.548Z,19.85
2022-08-03T10:27:09.412Z,18.98
2022-08-03T10:29:42.486Z,20.15
2022-08-03T10:32:41.552Z,20.02
2022-08-03T10:35:21.108Z,19.70
2022-08-03T10:37:59.314Z,20.85
2022-08-03T10:40:49.589Z,19.73
2022-08-03T10:43:24.382Z,20.90
2022-08-03T10:45:54.745Z,23.75
2022-08-03T10:48:25.807Z,20.88
2022-08-03T10:50:55.774Z,20.83
2022-08-03T10:53:44.123Z,18.67
2022-08-03T10:56:54.832Z,18.70
2022-08-03T10:59:52.117Z,18.30
2022-08-03T11:02:22.341Z,18.65
2022-08-03T11:05:29.307Z,16.67
2022-08-03T11:08:24.301Z,16.80
2022-08-03T11:11:03.154Z,14.80
2022-08-03T11:13:34.877Z,15.07
2022-08-03T11:16:22.452Z,15.25
2022-08-03T11:19:23.767Z,14.02
2022-08-03T11:21:58.646Z,15.68
2022-08-03T11:24:48.764Z,14.45
2022-08-03T11:27:22.577Z,13.35
2022-08-03T11:30:12.573Z,13.77
2022-08-03T11:32:46.679Z,12.68
2022-08-03T11:35:22.646Z,13.05
2022-08-03T11:38:04.599Z,11.95
2022-08-03T11:40:51.516Z,12.43
2022-08-03T11:43:28.985Z,12.82
2022-08-03T11:46:00.918Z,12.52
2022-08-03T11:48:37.347Z,13.57
2022-08-03T11:51:10.894Z,11.50
2022-08-03T11:53:45.585Z,13.32
2022-08-03T11:56:15.741Z,13.98
2022-08-03T11:59:19.258Z,13.88
2022-08-03T12:01:47.212Z,13.23
2022-08-03T12:04:17.427Z,13.63
2022-08-03T12:07:05.463Z,13.85
2022-08-03T12:09:37.315Z,12.25
2022-08-03T12:12:08.113Z,13.65
2022-08-03T12:14:50.786Z,12.93
2022-08-03T12:17:23.061Z,12.48
2022-08-03T12:19:53.077Z,12.13
2022-08-03T12:22:34.880Z,11.68
2022-08-03T12:25:06.277Z,12.45
2022-08-03T12:27:37.380Z,10.80
2022-08-03T12:30:07.711Z,11.25
2022-08-03T12:32:37.425Z,11.00
2022-08-03T12:35:07.738Z,10.10
2022-08-03T12:37:39.777Z,10.73
2022-08-03T12:40:15.117Z,10.70
2022-08-03T12:42:47.822Z,10.32
2022-08-03T12:45:28.834Z,9.45
2022-08-03T12:48:03.250Z,10.18
2022-08-03T12:50:35.466Z,10.25
2022-08-03T12:53:08.961Z,9.65
2022-08-03T12:56:05.367Z,10.07
2022-08-03T12:58:37.831Z,10.43
2022-08-03T13:01:10.792Z,10.20
2022-08-03T13:03:49.530Z,9.60
2022-08-03T13:06:26.214Z,9.65
2022-08-03T13:09:09.731Z,10.00
2022-08-03T13:11:53.556Z,9.32
2022-08-03T13:14:29.775Z,9.43
2022-08-03T13:16:59.762Z,10.18
2022-08-03T13:19:29.736Z,10.93
2022-08-03T13:22:04.205Z,12.07
2022-08-03T13:28:03.978Z,10.95
2022-08-03T13:29:57.340Z,11.90
2022-08-03T13:32:27.507Z,10.80
2022-08-03T13:34:57.302Z,12.10
2022-08-03T13:37:27.699Z,12.80
2022-08-03T13:40:02.232Z,11.95
2022-08-03T13:42:34.404Z,12.50
2022-08-03T13:45:06.811Z,12.73
2022-08-03T13:47:38.358Z,14.10
2022-08-03T13:50:08.734Z,12.27
2022-08-03T13:52:39.188Z,12.55
2022-08-03T13:55:09.561Z,12.77
2022-08-03T13:58:04.185Z,12.27
2022-08-03T14:00:29.802Z,11.57
2022-08-03T14:03:12.871Z,12.18
2022-08-03T14:05:47.052Z,12.05
2022-08-03T14:08:16.967Z,12.27
2022-08-03T14:10:47.083Z,10.93
2022-08-03T14:13:18.166Z,12.18
2022-08-03T14:15:50.382Z,12.02
2022-08-03T14:18:29.080Z,12.00
2022-08-03T14:21:06.627Z,11.27
2022-08-03T14:23:41.280Z,11.10
2022-08-03T14:26:11.653Z,11.57
2022-08-03T14:28:42.000Z,12.52
2022-08-03T14:31:15.509Z,10.63
2022-08-03T14:34:01.981Z,11.35
2022-08-03T14:36:31.818Z,10.35
2022-08-03T14:39:02.361Z,10.82
2022-08-03T14:41:32.476Z,11.18
2022-08-03T14:44:02.597Z,10.15
2022-08-03T14:46:33.487Z,10.88
2022-08-03T14:50:31.359Z,11.35
2022-08-03T14:51:54.171Z,10.57
2022-08-03T14:54:24.492Z,10.60
2022-08-03T14:56:54.401Z,10.13
2022-08-03T14:59:24.324Z,11.32
2022-08-03T15:02:06.335Z,9.93
2022-08-03T15:04:38.778Z,9.30
2022-08-03T15:07:08.545Z,10.35
2022-08-03T15:09:40.176Z,10.23
2022-08-03T15:12:10.525Z,10.85
2022-08-03T15:14:41.260Z,9.88
2022-08-03T15:17:11.441Z,10.38
2022-08-03T15:20:01.682Z,11.65
2022-08-03T15:22:34.544Z,11.73
2022-08-03T15:26:28.246Z,11.65
2022-08-03T15:28:03.445Z,12.00
2022-08-03T15:30:37.944Z,12.02
2022-08-03T15:33:08.333Z,11.70
2022-08-03T15:35:38.124Z,11.38
2022-08-03T15:38:09.590Z,11.65
2022-08-03T15:40:40.731Z,11.35
2022-08-03T15:43:11.134Z,11.30
2022-08-03T15:45:42.018Z,11.65
2022-08-03T15:48:12.235Z,11.05
2022-08-03T15:50:42.651Z,10.80
2022-08-03T15:53:13.742Z,10.25
2022-08-03T15:55:45.232Z,10.32
2022-08-03T15:59:04.552Z,10.27
2022-08-03T16:01:07.809Z,10.55
2022-08-03T16:03:37.879Z,9.82
2022-08-03T16:06:09.056Z,9.88
2022-08-03T16:08:38.941Z,10.65
2022-08-03T16:11:08.773Z,11.70
2022-08-03T16:14:13.209Z,10.25
2022-08-03T16:16:28.877Z,9.95
2022-08-03T16:18:58.614Z,10.93
2022-08-03T16:21:38.632Z,10.20
2022-08-03T16:24:24.243Z,10.25
2022-08-03T16:27:00.810Z,17.73
2022-08-03T16:29:30.877Z,9.93
2022-08-03T16:32:09.491Z,9.68
2022-08-03T16:34:40.685Z,10.43
2022-08-03T16:37:37.060Z,9.45
2022-08-03T16:40:03.148Z,10.18
2022-08-03T16:42:33.144Z,9.93
2022-08-03T16:45:03.578Z,10.63
2022-08-03T16:47:33.533Z,10.00
2022-08-03T16:50:08.943Z,9.82
2022-08-03T16:52:47.244Z,9.13
2022-08-03T16:55:53.349Z,9.65
2022-08-03T16:58:12.525Z,11.07
2022-08-03T17:00:46.313Z,9.43
2022-08-03T17:03:24.221Z,10.68
2022-08-03T17:05:55.406Z,9.65
2022-08-03T17:08:30.689Z,10.60
2022-08-03T17:11:01.227Z,11.65
2022-08-03T17:13:39.335Z,9.77
2022-08-03T17:16:15.450Z,9.10
2022-08-03T17:19:02.033Z,8.57
2022-08-03T17:21:39.924Z,9.57
2022-08-03T17:24:27.249Z,9.63
2022-08-03T17:26:59.926Z,9.60
2022-08-03T17:29:31.415Z,9.35
2022-08-03T17:32:07.831Z,10.15
2022-08-03T17:34:45.049Z,9.73
2022-08-03T17:37:50.763Z,11.23
2022-08-03T17:40:07.306Z,10.73
2022-08-03T17:44:14.170Z,10.48
2022-08-03T17:46:12.236Z,9.95
2022-08-03T17:48:43.742Z,11.98
2022-08-03T17:51:21.555Z,10.23
2022-08-03T17:54:18.185Z,10.23
2022-08-03T17:57:22.118Z,11.02
2022-08-03T18:00:29.669Z,11.13
2022-08-03T18:03:20.584Z,10.57
2022-08-03T18:06:10.418Z,10.95
2022-08-03T18:08:56.218Z,11.00
2022-08-03T18:11:35.615Z,11.52
2022-08-03T18:14:32.913Z,10.73
2022-08-03T18:17:10.419Z,10.88
2022-08-03T18:20:02.049Z,11.40
2022-08-03T18:22:31.078Z,12.40
2022-08-03T18:25:07.543Z,11.65
2022-08-03T18:27:38.579Z,10.65
2022-08-03T18:30:18.890Z,10.65
2022-08-03T18:35:53.054Z,11.25
2022-08-03T18:38:25.092Z,10.93
2022-08-03T18:40:55.621Z,11.48
2022-08-03T18:43:47.660Z,10.95
2022-08-03T18:46:50.869Z,10.85
2022-08-03T18:49:37.412Z,12.52
2022-08-03T18:52:17.955Z,10.93
2022-08-03T18:55:11.150Z,10.88
2022-08-03T18:58:15.959Z,11.43
2022-08-03T19:01:57.524Z,11.77
2022-08-03T19:04:13.012Z,11.27
2022-08-03T19:06:49.400Z,11.88
2022-08-03T19:09:52.944Z,12.57
2022-08-03T19:12:48.952Z,12.52
2022-08-03T19:15:41.291Z,11.70
2022-08-03T19:18:16.378Z,12.23
2022-08-03T19:20:47.690Z,12.02
2022-08-03T19:26:05.057Z,13.00
2022-08-03T19:28:57.901Z,12.32
2022-08-03T19:31:30.972Z,12.25
2022-08-03T19:34:02.182Z,12.18
2022-08-03T19:36:34.795Z,12.77
2022-08-03T19:39:11.117Z,13.05
2022-08-03T19:41:42.927Z,11.85
2022-08-03T19:44:28.441Z,12.65
2022-08-03T19:47:07.204Z,13.00
2022-08-03T19:50:05.977Z,11.82
2022-08-03T19:52:39.729Z,12.07
2022-08-03T19:55:12.836Z,12.10
2022-08-03T19:57:46.235Z,12.40
2022-08-03T20:00:26.630Z,12.68
2022-08-03T20:03:00.793Z,13.20
2022-08-03T20:05:44.926Z,12.98
2022-08-03T20:08:22.527Z,13.07
2022-08-03T20:10:52.880Z,11.73
2022-08-03T20:13:28.292Z,12.95
2022-08-03T20:18:27.806Z,11.82
2022-08-03T20:21:05.397Z,11.52
2022-08-03T20:24:00.030Z,11.95
2022-08-03T20:26:33.282Z,12.38
2022-08-03T20:29:10.108Z,12.70
2022-08-03T20:31:41.447Z,12.52
2022-08-03T20:34:11.407Z,12.85
2022-08-03T20:36:47.837Z,13.35
2022-08-03T20:39:17.614Z,13.00
2022-08-03T20:41:48.266Z,13.20
2022-08-03T20:44:18.014Z,14.35
2022-08-03T20:47:00.486Z,12.88
2022-08-03T20:49:31.470Z,13.93
2022-08-03T20:55:12.961Z,13.75
2022-08-03T20:57:49.234Z,14.23
2022-08-03T21:00:22.250Z,13.88
2022-08-03T21:02:52.043Z,14.07
2022-08-03T21:05:47.644Z,13.98
2022-08-03T21:08:15.242Z,14.73
2022-08-03T21:10:47.601Z,14.48
2022-08-03T21:13:05.402Z,11.20
2022-08-03T21:13:07.593Z,13.35
2022-08-03T21:13:33.234Z,14.20
2022-08-03T21:16:13.965Z,14.63
2022-08-03T21:18:49.815Z,14.30
2022-08-03T21:21:23.127Z,14.20
2022-08-03T21:23:55.299Z,14.10
2022-08-03T21:26:27.557Z,15.13
2022-08-03T21:28:58.616Z,14.82
2022-08-03T21:31:28.752Z,14.10
2022-08-03T21:34:01.662Z,14.65
2022-08-03T21:36:34.787Z,15.27
2022-08-03T21:39:08.618Z,13.68
2022-08-03T21:41:41.507Z,14.50
2022-08-03T21:44:12.450Z,14.10
2022-08-03T21:46:44.164Z,14.10
2022-08-03T21:50:02.676Z,13.63
2022-08-03T21:52:09.217Z,14.75
2022-08-03T21:54:44.746Z,13.77
2022-08-03T21:57:24.806Z,14.48
2022-08-03T21:59:57.729Z,14.93
2022-08-03T22:02:32.439Z,14.38
2022-08-03T22:05:05.114Z,14.32
2022-08-03T22:07:36.170Z,14.18
2022-08-03T22:10:07.944Z,14.68
2022-08-03T22:12:38.200Z,16.15
2022-08-03T22:15:10.825Z,14.90
2022-08-03T22:17:55.173Z,15.02
2022-08-03T22:20:27.288Z,14.38
2022-08-03T22:23:01.655Z,15.35
2022-08-03T22:25:35.301Z,14.70
2022-08-03T22:28:10.314Z,14.52
2022-08-03T22:30:42.026Z,14.57
2022-08-03T22:33:13.617Z,14.80
2022-08-03T22:35:51.464Z,14.45
2022-08-03T22:38:21.477Z,15.20
2022-08-03T22:40:52.048Z,16.20
2022-08-03T22:43:29.129Z,13.98
2022-08-03T22:46:09.680Z,15.10
2022-08-03T22:48:42.573Z,15.20
2022-08-03T22:51:12.357Z,16.58
2022-08-03T22:53:42.239Z,15.55
2022-08-03T22:56:12.331Z,15.30
2022-08-03T22:58:43.634Z,14.52
2022-08-03T23:01:15.225Z,14.23
2022-08-03T23:04:00.924Z,16.38
2022-08-03T23:06:44.084Z,15.57
2022-08-03T23:09:16.909Z,15.80
2022-08-03T23:11:48.417Z,14.75
2022-08-03T23:14:20.817Z,15.07
2022-08-03T23:16:52.447Z,14.80
2022-08-03T23:19:25.895Z,15.90
2022-08-03T23:22:03.829Z,17.23
2022-08-03T23:24:38.075Z,15.57
2022-08-03T23:27:09.691Z,15.80
2022-08-03T23:29:43.732Z,17.17
2022-08-03T23:32:15.015Z,19.42
2022-08-03T23:35:04.917Z,16.13
2022-08-03T23:37:34.915Z,15.82
2022-08-03T23:40:27.345Z,16.02
2022-08-03T23:42:59.444Z,15.30
2022-08-03T23:45:31.922Z,15.40
2022-08-03T23:48:02.857Z,14.65
2022-08-03T23:50:45.412Z,17.58
2022-08-03T23:53:42.244Z,16.75
2022-08-03T23:56:23.130Z,17.20
2022-08-03T23:59:02.430Z,20.33
